Dati Storici

Data ora Umidita' aria (%) Temperatura aria (°C) Rad globale (W/m²) Gonioanemometro (°) Tacoanemometro (m/s) Pioggia (mm)
12-10-2012 08:40 82.9 % 13.484 69.629 60.345 2.351 0
12-10-2012 08:30 82.9 % 13.339 53.037 46.125 1.85 0
12-10-2012 08:20 83.1 % 13.241 40.259 25.556 1.622 0
12-10-2012 08:10 83.6 % 13.208 30.388 29.48 0.758 0
12-10-2012 08:00 83.4 % 13.081 31.917 34.317 1.604 0
12-10-2012 07:50 83.6 % 13.027 34.671 43.164 1.263 0
12-10-2012 07:40 83.9 % 12.933 30.482 9.373 1.02 0
12-10-2012 07:30 84.2 % 12.844 12.945 59.933 1.109 0
12-10-2012 07:20 84.5 % 12.738 6.028 37.816 1.907 0
12-10-2012 07:10 84.8 % 12.626 4.248 16.01 1.573 0
12-10-2012 07:00 85 % 12.587 3.343 46.133 1.375 0
12-10-2012 06:50 85 % 12.532 2.818 25.161 2.045 0
12-10-2012 06:40 84.8 % 12.549 2.792 14.117 2.194 0
12-10-2012 06:30 84.7 % 12.652 3.138 347.631 1.711 0
12-10-2012 06:20 84.7 % 12.728 3.279 13.877 1.185 0
12-10-2012 06:10 84.6 % 12.755 3.01 21.353 1.709 0
12-10-2012 06:00 84.4 % 12.759 3.343 32.052 1.721 0
12-10-2012 05:50 84.6 % 12.807 3.228 21.253 0.271 0
12-10-2012 05:40 84.5 % 12.836 3.445 346.561 1.507 0
12-10-2012 05:30 84.5 % 12.778 2.819 8.795 2.731 0

I dati sono presentati in modo automatico a scopo informativo. In seguito a verifica i dati possono subire modifiche o essere invalidati e non riportati negli archivi definitivi.